Search for airport 
image banner adimage banner adimage banner ad
image banner ad

29D - Grove City

Located in Grove City, United States

ICAO - 29D, IATA -

Data provided by Airmate  

General information

Coordinates: N41°8'46" W80°10'4"
Elevation is 1370 feet MSL.
Magnetic variation is -09° East
View others Airports in Pennsylvania

Operational data

Special qualification required
Current time UTC:
Current local time:
Weather at : KUCP - New Castle Muni ( 25 km )
METAR: KUCP 091156Z AUTO 00000KT 10SM SCT065 OVC080 06/03 A3004 RMK AO2 SLP194 T00610028 10061 20022 58014
View NOTAMs / SUP AIP / TFR affecting this airport [VIEW]
Communications frequencies: [VIEW]

Runways:

RWY identifierQFULength (ft)Width (ft)SurfaceLDA (ft)
1092°450075ASPH
28272°450075ASPH

Airport contact information

Address: Grove City United States

Satellite view of 29D